sensor_id;sensor_type;location;lat;lon;timestamp;P1;durP1;ratioP1;P2;durP2;ratioP2
60014;SDS011;45867;52.480;6.056;2022-08-19T00:01:29;15.38;;;7.85;;
60014;SDS011;45867;52.480;6.056;2022-08-19T00:03:56;20.50;;;7.93;;
60014;SDS011;45867;52.480;6.056;2022-08-19T00:06:21;15.98;;;8.07;;
60014;SDS011;45867;52.480;6.056;2022-08-19T00:08:46;12.20;;;8.27;;
60014;SDS011;45867;52.480;6.056;2022-08-19T00:11:12;15.35;;;8.32;;
60014;SDS011;45867;52.480;6.056;2022-08-19T00:13:37;14.48;;;8.13;;
60014;SDS011;45867;52.480;6.056;2022-08-19T00:16:03;14.70;;;8.13;;
60014;SDS011;45867;52.480;6.056;2022-08-19T00:18:31;14.27;;;8.65;;
60014;SDS011;45867;52.480;6.056;2022-08-19T00:20:56;21.65;;;8.77;;
60014;SDS011;45867;52.480;6.056;2022-08-19T00:23:21;16.85;;;8.00;;
60014;SDS011;45867;52.480;6.056;2022-08-19T00:25:47;14.68;;;7.97;;
60014;SDS011;45867;52.480;6.056;2022-08-19T00:28:12;14.13;;;7.88;;
60014;SDS011;45867;52.480;6.056;2022-08-19T00:30:37;20.00;;;9.02;;
60014;SDS011;45867;52.480;6.056;2022-08-19T00:33:03;14.25;;;8.32;;
60014;SDS011;45867;52.480;6.056;2022-08-19T00:35:28;15.35;;;8.35;;
60014;SDS011;45867;52.480;6.056;2022-08-19T00:37:54;20.08;;;8.85;;
60014;SDS011;45867;52.480;6.056;2022-08-19T00:40:19;13.93;;;8.45;;
60014;SDS011;45867;52.480;6.056;2022-08-19T00:42:45;18.58;;;8.65;;
60014;SDS011;45867;52.480;6.056;2022-08-19T00:45:13;19.90;;;9.68;;
60014;SDS011;45867;52.480;6.056;2022-08-19T00:47:39;14.48;;;8.93;;
60014;SDS011;45867;52.480;6.056;2022-08-19T00:50:05;14.55;;;9.13;;
60014;SDS011;45867;52.480;6.056;2022-08-19T00:52:32;15.43;;;9.50;;
60014;SDS011;45867;52.480;6.056;2022-08-19T00:54:58;16.10;;;9.90;;
60014;SDS011;45867;52.480;6.056;2022-08-19T00:57:26;15.93;;;9.60;;
60014;SDS011;45867;52.480;6.056;2022-08-19T00:59:53;15.90;;;8.80;;
60014;SDS011;45867;52.480;6.056;2022-08-19T01:02:19;15.30;;;9.50;;
60014;SDS011;45867;52.480;6.056;2022-08-19T01:04:44;17.40;;;10.10;;
60014;SDS011;45867;52.480;6.056;2022-08-19T01:07:10;19.23;;;9.70;;
60014;SDS011;45867;52.480;6.056;2022-08-19T01:09:35;21.30;;;10.18;;
60014;SDS011;45867;52.480;6.056;2022-08-19T01:12:00;16.38;;;10.30;;
60014;SDS011;45867;52.480;6.056;2022-08-19T01:14:26;19.40;;;9.93;;
60014;SDS011;45867;52.480;6.056;2022-08-19T01:16:52;17.45;;;9.75;;
60014;SDS011;45867;52.480;6.056;2022-08-19T01:21:50;16.80;;;9.65;;
60014;SDS011;45867;52.480;6.056;2022-08-19T01:24:17;18.02;;;10.15;;
60014;SDS011;45867;52.480;6.056;2022-08-19T01:26:45;15.15;;;9.35;;
60014;SDS011;45867;52.480;6.056;2022-08-19T01:29:10;15.85;;;9.02;;
60014;SDS011;45867;52.480;6.056;2022-08-19T01:31:36;18.08;;;10.40;;
60014;SDS011;45867;52.480;6.056;2022-08-19T01:34:04;15.90;;;9.90;;
60014;SDS011;45867;52.480;6.056;2022-08-19T01:36:34;20.25;;;9.88;;
60014;SDS011;45867;52.480;6.056;2022-08-19T01:39:05;17.98;;;10.45;;
60014;SDS011;45867;52.480;6.056;2022-08-19T01:41:31;16.88;;;9.55;;
60014;SDS011;45867;52.480;6.056;2022-08-19T01:43:56;20.83;;;9.95;;
60014;SDS011;45867;52.480;6.056;2022-08-19T01:46:21;19.20;;;9.85;;
60014;SDS011;45867;52.480;6.056;2022-08-19T01:48:46;16.98;;;9.88;;
60014;SDS011;45867;52.480;6.056;2022-08-19T01:51:12;23.23;;;10.52;;
60014;SDS011;45867;52.480;6.056;2022-08-19T01:53:37;15.40;;;9.98;;
60014;SDS011;45867;52.480;6.056;2022-08-19T01:56:03;19.63;;;9.88;;
60014;SDS011;45867;52.480;6.056;2022-08-19T01:58:30;14.63;;;9.07;;
60014;SDS011;45867;52.480;6.056;2022-08-19T02:00:57;17.77;;;10.00;;
60014;SDS011;45867;52.480;6.056;2022-08-19T02:03:23;17.65;;;10.30;;
60014;SDS011;45867;52.480;6.056;2022-08-19T02:05:53;19.58;;;10.52;;
60014;SDS011;45867;52.480;6.056;2022-08-19T02:08:19;16.60;;;9.55;;
60014;SDS011;45867;52.480;6.056;2022-08-19T02:10:44;16.30;;;9.50;;
60014;SDS011;45867;52.480;6.056;2022-08-19T02:13:10;16.48;;;9.65;;
60014;SDS011;45867;52.480;6.056;2022-08-19T02:15:36;16.30;;;10.50;;
60014;SDS011;45867;52.480;6.056;2022-08-19T02:18:01;19.23;;;9.90;;
60014;SDS011;45867;52.480;6.056;2022-08-19T02:20:26;15.43;;;9.70;;
60014;SDS011;45867;52.480;6.056;2022-08-19T02:22:52;15.93;;;10.00;;
60014;SDS011;45867;52.480;6.056;2022-08-19T02:25:17;22.40;;;10.65;;
60014;SDS011;45867;52.480;6.056;2022-08-19T02:27:42;17.67;;;9.50;;
60014;SDS011;45867;52.480;6.056;2022-08-19T02:30:09;27.27;;;10.63;;
60014;SDS011;45867;52.480;6.056;2022-08-19T02:32:35;17.77;;;10.35;;
60014;SDS011;45867;52.480;6.056;2022-08-19T02:35:00;17.63;;;9.97;;
60014;SDS011;45867;52.480;6.056;2022-08-19T02:37:26;19.30;;;10.68;;
60014;SDS011;45867;52.480;6.056;2022-08-19T02:40:10;19.20;;;10.75;;
60014;SDS011;45867;52.480;6.056;2022-08-19T02:42:36;19.90;;;10.88;;
60014;SDS011;45867;52.480;6.056;2022-08-19T02:45:01;20.17;;;11.13;;
60014;SDS011;45867;52.480;6.056;2022-08-19T02:47:27;17.52;;;11.32;;
60014;SDS011;45867;52.480;6.056;2022-08-19T02:49:52;19.45;;;11.23;;
60014;SDS011;45867;52.480;6.056;2022-08-19T02:52:17;18.48;;;11.43;;
60014;SDS011;45867;52.480;6.056;2022-08-19T02:54:43;19.45;;;11.95;;
60014;SDS011;45867;52.480;6.056;2022-08-19T02:57:08;20.83;;;11.30;;
60014;SDS011;45867;52.480;6.056;2022-08-19T02:59:34;20.73;;;11.60;;
60014;SDS011;45867;52.480;6.056;2022-08-19T03:01:59;19.80;;;11.83;;
60014;SDS011;45867;52.480;6.056;2022-08-19T03:04:24;20.63;;;11.55;;
60014;SDS011;45867;52.480;6.056;2022-08-19T03:06:50;19.77;;;12.20;;
60014;SDS011;45867;52.480;6.056;2022-08-19T03:09:15;22.73;;;11.65;;
60014;SDS011;45867;52.480;6.056;2022-08-19T03:11:41;23.92;;;11.80;;
60014;SDS011;45867;52.480;6.056;2022-08-19T03:14:07;20.37;;;11.33;;
60014;SDS011;45867;52.480;6.056;2022-08-19T03:16:34;17.95;;;10.85;;
60014;SDS011;45867;52.480;6.056;2022-08-19T03:19:00;22.48;;;12.57;;
60014;SDS011;45867;52.480;6.056;2022-08-19T03:21:26;23.05;;;12.18;;
60014;SDS011;45867;52.480;6.056;2022-08-19T03:23:56;21.50;;;12.13;;
60014;SDS011;45867;52.480;6.056;2022-08-19T03:26:21;23.02;;;12.77;;
60014;SDS011;45867;52.480;6.056;2022-08-19T03:28:46;20.88;;;12.00;;
60014;SDS011;45867;52.480;6.056;2022-08-19T03:31:15;24.10;;;12.77;;
60014;SDS011;45867;52.480;6.056;2022-08-19T03:33:40;21.38;;;12.02;;
60014;SDS011;45867;52.480;6.056;2022-08-19T03:36:11;20.52;;;11.77;;
60014;SDS011;45867;52.480;6.056;2022-08-19T03:38:38;21.42;;;12.50;;
60014;SDS011;45867;52.480;6.056;2022-08-19T03:41:07;19.83;;;11.57;;
60014;SDS011;45867;52.480;6.056;2022-08-19T03:43:36;19.75;;;11.73;;
60014;SDS011;45867;52.480;6.056;2022-08-19T03:46:06;22.13;;;12.38;;
60014;SDS011;45867;52.480;6.056;2022-08-19T03:48:32;21.27;;;12.35;;
60014;SDS011;45867;52.480;6.056;2022-08-19T03:50:58;22.38;;;13.18;;
60014;SDS011;45867;52.480;6.056;2022-08-19T03:53:25;26.63;;;13.77;;
60014;SDS011;45867;52.480;6.056;2022-08-19T03:55:51;25.75;;;13.00;;
60014;SDS011;45867;52.480;6.056;2022-08-19T03:58:16;21.25;;;12.25;;
60014;SDS011;45867;52.480;6.056;2022-08-19T04:00:42;24.35;;;12.07;;
60014;SDS011;45867;52.480;6.056;2022-08-19T04:03:07;20.27;;;11.48;;
60014;SDS011;45867;52.480;6.056;2022-08-19T04:05:33;22.10;;;12.55;;
60014;SDS011;45867;52.480;6.056;2022-08-19T04:07:58;24.07;;;12.53;;
60014;SDS011;45867;52.480;6.056;2022-08-19T04:10:24;26.58;;;13.50;;
60014;SDS011;45867;52.480;6.056;2022-08-19T04:12:49;26.05;;;13.65;;
60014;SDS011;45867;52.480;6.056;2022-08-19T04:15:14;25.40;;;12.60;;
60014;SDS011;45867;52.480;6.056;2022-08-19T04:17:40;20.70;;;12.65;;
60014;SDS011;45867;52.480;6.056;2022-08-19T04:20:05;24.10;;;13.02;;
60014;SDS011;45867;52.480;6.056;2022-08-19T04:22:31;26.63;;;13.90;;
60014;SDS011;45867;52.480;6.056;2022-08-19T04:24:56;31.23;;;14.40;;
60014;SDS011;45867;52.480;6.056;2022-08-19T04:27:21;24.33;;;13.97;;
60014;SDS011;45867;52.480;6.056;2022-08-19T04:29:46;25.25;;;14.15;;
60014;SDS011;45867;52.480;6.056;2022-08-19T04:32:12;23.75;;;14.23;;
60014;SDS011;45867;52.480;6.056;2022-08-19T04:34:40;22.23;;;13.25;;
60014;SDS011;45867;52.480;6.056;2022-08-19T04:37:06;27.95;;;14.20;;
60014;SDS011;45867;52.480;6.056;2022-08-19T04:39:40;31.25;;;13.90;;
60014;SDS011;45867;52.480;6.056;2022-08-19T04:42:24;29.95;;;14.15;;
60014;SDS011;45867;52.480;6.056;2022-08-19T04:45:09;24.42;;;13.82;;
60014;SDS011;45867;52.480;6.056;2022-08-19T04:47:35;33.92;;;15.60;;
60014;SDS011;45867;52.480;6.056;2022-08-19T04:50:02;25.27;;;14.55;;
60014;SDS011;45867;52.480;6.056;2022-08-19T04:52:27;32.30;;;16.05;;
60014;SDS011;45867;52.480;6.056;2022-08-19T04:54:53;31.45;;;15.63;;
60014;SDS011;45867;52.480;6.056;2022-08-19T04:57:20;25.35;;;15.32;;
60014;SDS011;45867;52.480;6.056;2022-08-19T04:59:45;29.02;;;15.02;;
60014;SDS011;45867;52.480;6.056;2022-08-19T05:02:11;31.45;;;15.18;;
60014;SDS011;45867;52.480;6.056;2022-08-19T05:04:36;27.77;;;15.30;;
60014;SDS011;45867;52.480;6.056;2022-08-19T05:07:04;28.85;;;15.27;;
60014;SDS011;45867;52.480;6.056;2022-08-19T05:09:29;25.50;;;14.57;;
60014;SDS011;45867;52.480;6.056;2022-08-19T05:11:54;26.23;;;14.50;;
60014;SDS011;45867;52.480;6.056;2022-08-19T05:14:20;30.75;;;16.60;;
60014;SDS011;45867;52.480;6.056;2022-08-19T05:16:46;26.00;;;14.35;;
60014;SDS011;45867;52.480;6.056;2022-08-19T05:19:11;29.85;;;16.00;;
60014;SDS011;45867;52.480;6.056;2022-08-19T05:21:55;26.95;;;14.20;;
60014;SDS011;45867;52.480;6.056;2022-08-19T05:24:39;29.38;;;14.50;;
60014;SDS011;45867;52.480;6.056;2022-08-19T05:27:04;25.70;;;14.80;;
60014;SDS011;45867;52.480;6.056;2022-08-19T05:29:31;26.90;;;15.25;;
60014;SDS011;45867;52.480;6.056;2022-08-19T05:31:57;27.38;;;15.10;;
60014;SDS011;45867;52.480;6.056;2022-08-19T05:34:23;29.58;;;15.30;;
60014;SDS011;45867;52.480;6.056;2022-08-19T05:36:51;29.45;;;15.30;;
60014;SDS011;45867;52.480;6.056;2022-08-19T05:39:20;28.10;;;14.75;;
60014;SDS011;45867;52.480;6.056;2022-08-19T05:41:46;27.50;;;15.57;;
60014;SDS011;45867;52.480;6.056;2022-08-19T05:44:12;26.75;;;13.82;;
60014;SDS011;45867;52.480;6.056;2022-08-19T05:46:38;23.38;;;14.27;;
60014;SDS011;45867;52.480;6.056;2022-08-19T05:49:07;22.83;;;12.93;;
60014;SDS011;45867;52.480;6.056;2022-08-19T05:51:33;26.98;;;14.13;;
60014;SDS011;45867;52.480;6.056;2022-08-19T05:53:59;23.83;;;13.23;;
60014;SDS011;45867;52.480;6.056;2022-08-19T05:56:27;27.80;;;15.32;;
60014;SDS011;45867;52.480;6.056;2022-08-19T05:58:55;25.27;;;14.05;;
60014;SDS011;45867;52.480;6.056;2022-08-19T06:01:20;20.95;;;12.55;;
60014;SDS011;45867;52.480;6.056;2022-08-19T06:03:46;22.55;;;12.88;;
60014;SDS011;45867;52.480;6.056;2022-08-19T06:06:14;23.52;;;12.02;;
60014;SDS011;45867;52.480;6.056;2022-08-19T06:08:40;23.35;;;10.73;;
60014;SDS011;45867;52.480;6.056;2022-08-19T06:11:20;16.50;;;11.60;;
60014;SDS011;45867;52.480;6.056;2022-08-19T06:13:46;18.20;;;10.75;;
60014;SDS011;45867;52.480;6.056;2022-08-19T06:16:14;17.23;;;10.35;;
60014;SDS011;45867;52.480;6.056;2022-08-19T06:18:52;17.27;;;10.05;;
60014;SDS011;45867;52.480;6.056;2022-08-19T06:21:18;14.77;;;9.63;;
60014;SDS011;45867;52.480;6.056;2022-08-19T06:23:44;13.85;;;9.75;;
60014;SDS011;45867;52.480;6.056;2022-08-19T06:26:13;17.60;;;9.63;;
60014;SDS011;45867;52.480;6.056;2022-08-19T06:28:39;13.75;;;9.65;;
60014;SDS011;45867;52.480;6.056;2022-08-19T06:31:11;15.60;;;9.80;;
60014;SDS011;45867;52.480;6.056;2022-08-19T06:33:39;14.85;;;9.23;;
60014;SDS011;45867;52.480;6.056;2022-08-19T06:36:04;22.73;;;9.10;;
60014;SDS011;45867;52.480;6.056;2022-08-19T06:38:29;14.57;;;8.98;;
60014;SDS011;45867;52.480;6.056;2022-08-19T06:41:02;11.43;;;8.63;;
60014;SDS011;45867;52.480;6.056;2022-08-19T06:43:30;14.52;;;9.18;;
60014;SDS011;45867;52.480;6.056;2022-08-19T06:45:56;11.97;;;7.80;;
60014;SDS011;45867;52.480;6.056;2022-08-19T06:48:21;10.23;;;7.75;;
60014;SDS011;45867;52.480;6.056;2022-08-19T06:50:46;12.23;;;8.52;;
60014;SDS011;45867;52.480;6.056;2022-08-19T06:53:13;13.65;;;7.97;;
60014;SDS011;45867;52.480;6.056;2022-08-19T06:55:38;12.52;;;7.72;;
60014;SDS011;45867;52.480;6.056;2022-08-19T06:58:05;15.30;;;8.73;;
60014;SDS011;45867;52.480;6.056;2022-08-19T07:00:31;14.48;;;9.98;;
60014;SDS011;45867;52.480;6.056;2022-08-19T07:02:56;15.20;;;9.65;;
60014;SDS011;45867;52.480;6.056;2022-08-19T07:05:22;18.83;;;10.25;;
60014;SDS011;45867;52.480;6.056;2022-08-19T07:07:47;18.80;;;10.80;;
60014;SDS011;45867;52.480;6.056;2022-08-19T07:10:12;20.00;;;12.73;;
60014;SDS011;45867;52.480;6.056;2022-08-19T07:12:38;28.20;;;13.18;;
60014;SDS011;45867;52.480;6.056;2022-08-19T07:15:05;24.13;;;13.73;;
60014;SDS011;45867;52.480;6.056;2022-08-19T07:17:30;22.75;;;14.25;;
60014;SDS011;45867;52.480;6.056;2022-08-19T07:19:56;29.17;;;15.63;;
60014;SDS011;45867;52.480;6.056;2022-08-19T07:22:21;23.30;;;15.13;;
60014;SDS011;45867;52.480;6.056;2022-08-19T07:24:50;22.50;;;14.93;;
60014;SDS011;45867;52.480;6.056;2022-08-19T07:27:18;27.73;;;15.40;;
60014;SDS011;45867;52.480;6.056;2022-08-19T07:29:43;25.48;;;15.50;;
60014;SDS011;45867;52.480;6.056;2022-08-19T07:32:09;23.13;;;15.23;;
60014;SDS011;45867;52.480;6.056;2022-08-19T07:34:36;24.60;;;15.70;;
60014;SDS011;45867;52.480;6.056;2022-08-19T07:37:03;26.15;;;15.88;;
60014;SDS011;45867;52.480;6.056;2022-08-19T07:39:30;24.52;;;17.20;;
60014;SDS011;45867;52.480;6.056;2022-08-19T07:41:56;22.88;;;16.55;;
60014;SDS011;45867;52.480;6.056;2022-08-19T07:44:22;24.63;;;16.88;;
60014;SDS011;45867;52.480;6.056;2022-08-19T07:46:49;23.92;;;16.40;;
60014;SDS011;45867;52.480;6.056;2022-08-19T07:49:15;27.63;;;17.40;;
60014;SDS011;45867;52.480;6.056;2022-08-19T07:51:48;30.70;;;17.10;;
60014;SDS011;45867;52.480;6.056;2022-08-19T07:54:14;24.10;;;14.95;;
60014;SDS011;45867;52.480;6.056;2022-08-19T07:56:39;23.38;;;14.90;;
60014;SDS011;45867;52.480;6.056;2022-08-19T07:59:05;22.00;;;14.88;;
60014;SDS011;45867;52.480;6.056;2022-08-19T08:01:32;24.95;;;15.43;;
60014;SDS011;45867;52.480;6.056;2022-08-19T08:03:58;23.47;;;14.43;;
60014;SDS011;45867;52.480;6.056;2022-08-19T08:06:42;22.05;;;14.43;;
60014;SDS011;45867;52.480;6.056;2022-08-19T08:09:31;24.83;;;14.07;;
60014;SDS011;45867;52.480;6.056;2022-08-19T08:11:58;22.35;;;14.35;;
60014;SDS011;45867;52.480;6.056;2022-08-19T08:14:26;21.65;;;12.65;;
60014;SDS011;45867;52.480;6.056;2022-08-19T08:16:52;19.05;;;12.05;;
60014;SDS011;45867;52.480;6.056;2022-08-19T08:19:18;18.60;;;11.80;;
60014;SDS011;45867;52.480;6.056;2022-08-19T08:21:43;20.73;;;11.75;;
60014;SDS011;45867;52.480;6.056;2022-08-19T08:24:09;20.97;;;10.87;;
60014;SDS011;45867;52.480;6.056;2022-08-19T08:26:34;20.20;;;10.88;;
60014;SDS011;45867;52.480;6.056;2022-08-19T08:29:00;12.70;;;7.75;;
60014;SDS011;45867;52.480;6.056;2022-08-19T08:31:26;16.48;;;10.55;;
60014;SDS011;45867;52.480;6.056;2022-08-19T08:33:51;22.45;;;12.52;;
60014;SDS011;45867;52.480;6.056;2022-08-19T08:36:17;18.75;;;11.40;;
60014;SDS011;45867;52.480;6.056;2022-08-19T08:38:43;26.60;;;13.50;;
60014;SDS011;45867;52.480;6.056;2022-08-19T08:41:14;23.42;;;12.48;;
60014;SDS011;45867;52.480;6.056;2022-08-19T08:43:44;23.38;;;11.90;;
60014;SDS011;45867;52.480;6.056;2022-08-19T08:48:45;15.90;;;10.43;;
60014;SDS011;45867;52.480;6.056;2022-08-19T08:51:22;21.63;;;11.25;;
60014;SDS011;45867;52.480;6.056;2022-08-19T08:53:49;18.60;;;10.65;;
60014;SDS011;45867;52.480;6.056;2022-08-19T08:56:15;23.70;;;10.95;;
60014;SDS011;45867;52.480;6.056;2022-08-19T09:01:12;20.77;;;11.18;;
60014;SDS011;45867;52.480;6.056;2022-08-19T09:03:38;17.77;;;11.80;;
60014;SDS011;45867;52.480;6.056;2022-08-19T09:08:56;14.95;;;9.60;;
60014;SDS011;45867;52.480;6.056;2022-08-19T09:16:41;25.95;;;15.68;;
60014;SDS011;45867;52.480;6.056;2022-08-19T09:19:07;28.35;;;15.60;;
60014;SDS011;45867;52.480;6.056;2022-08-19T09:21:32;27.30;;;17.02;;
60014;SDS011;45867;52.480;6.056;2022-08-19T09:23:59;30.55;;;17.17;;
60014;SDS011;45867;52.480;6.056;2022-08-19T09:26:25;27.52;;;16.60;;
60014;SDS011;45867;52.480;6.056;2022-08-19T09:28:51;25.95;;;17.13;;
60014;SDS011;45867;52.480;6.056;2022-08-19T09:31:21;28.90;;;16.73;;
60014;SDS011;45867;52.480;6.056;2022-08-19T09:33:47;33.17;;;18.98;;
60014;SDS011;45867;52.480;6.056;2022-08-19T09:36:14;31.90;;;19.10;;
60014;SDS011;45867;52.480;6.056;2022-08-19T09:38:40;24.85;;;17.95;;
60014;SDS011;45867;52.480;6.056;2022-08-19T09:41:09;30.17;;;19.65;;
60014;SDS011;45867;52.480;6.056;2022-08-19T09:43:36;32.67;;;19.65;;
60014;SDS011;45867;52.480;6.056;2022-08-19T09:46:02;29.55;;;21.45;;
60014;SDS011;45867;52.480;6.056;2022-08-19T09:48:28;31.00;;;20.40;;
60014;SDS011;45867;52.480;6.056;2022-08-19T09:50:53;34.00;;;20.17;;
60014;SDS011;45867;52.480;6.056;2022-08-19T09:53:20;28.80;;;18.85;;
60014;SDS011;45867;52.480;6.056;2022-08-19T09:55:47;33.22;;;20.95;;
60014;SDS011;45867;52.480;6.056;2022-08-19T09:58:12;34.00;;;20.95;;
60014;SDS011;45867;52.480;6.056;2022-08-19T10:00:38;34.67;;;20.03;;
60014;SDS011;45867;52.480;6.056;2022-08-19T10:03:03;33.75;;;21.02;;
60014;SDS011;45867;52.480;6.056;2022-08-19T10:05:29;35.60;;;20.45;;
60014;SDS011;45867;52.480;6.056;2022-08-19T10:08:12;30.35;;;21.23;;
60014;SDS011;45867;52.480;6.056;2022-08-19T10:10:38;32.37;;;19.50;;
60014;SDS011;45867;52.480;6.056;2022-08-19T10:13:03;29.43;;;19.67;;
60014;SDS011;45867;52.480;6.056;2022-08-19T10:15:29;28.42;;;20.23;;
60014;SDS011;45867;52.480;6.056;2022-08-19T10:17:54;31.63;;;19.42;;
60014;SDS011;45867;52.480;6.056;2022-08-19T10:20:20;30.73;;;20.25;;
60014;SDS011;45867;52.480;6.056;2022-08-19T10:22:46;35.38;;;20.08;;
60014;SDS011;45867;52.480;6.056;2022-08-19T10:25:12;31.60;;;20.37;;
60014;SDS011;45867;52.480;6.056;2022-08-19T10:27:40;32.78;;;19.92;;
60014;SDS011;45867;52.480;6.056;2022-08-19T10:30:05;32.40;;;19.17;;
60014;SDS011;45867;52.480;6.056;2022-08-19T10:32:31;24.83;;;17.73;;
60014;SDS011;45867;52.480;6.056;2022-08-19T10:34:56;36.33;;;18.27;;
60014;SDS011;45867;52.480;6.056;2022-08-19T10:37:22;27.77;;;18.20;;
60014;SDS011;45867;52.480;6.056;2022-08-19T10:39:47;31.80;;;17.97;;
60014;SDS011;45867;52.480;6.056;2022-08-19T10:42:15;22.88;;;15.88;;
60014;SDS011;45867;52.480;6.056;2022-08-19T10:44:42;23.48;;;14.75;;
60014;SDS011;45867;52.480;6.056;2022-08-19T10:47:07;23.67;;;13.82;;
60014;SDS011;45867;52.480;6.056;2022-08-19T10:49:32;18.80;;;11.35;;
60014;SDS011;45867;52.480;6.056;2022-08-19T10:52:18;18.23;;;11.40;;
60014;SDS011;45867;52.480;6.056;2022-08-19T10:54:59;21.05;;;10.55;;
60014;SDS011;45867;52.480;6.056;2022-08-19T10:57:42;17.45;;;10.25;;
60014;SDS011;45867;52.480;6.056;2022-08-19T11:00:08;12.77;;;8.07;;
60014;SDS011;45867;52.480;6.056;2022-08-19T11:02:33;14.75;;;10.10;;
60014;SDS011;45867;52.480;6.056;2022-08-19T11:04:59;20.38;;;11.15;;
60014;SDS011;45867;52.480;6.056;2022-08-19T11:07:24;16.93;;;10.90;;
60014;SDS011;45867;52.480;6.056;2022-08-19T11:09:51;17.33;;;10.73;;
60014;SDS011;45867;52.480;6.056;2022-08-19T11:12:16;23.40;;;10.10;;
60014;SDS011;45867;52.480;6.056;2022-08-19T11:14:42;22.23;;;13.73;;
60014;SDS011;45867;52.480;6.056;2022-08-19T11:17:07;22.55;;;12.18;;
60014;SDS011;45867;52.480;6.056;2022-08-19T11:19:33;18.63;;;10.98;;
60014;SDS011;45867;52.480;6.056;2022-08-19T11:21:58;18.52;;;12.57;;
60014;SDS011;45867;52.480;6.056;2022-08-19T11:24:26;23.33;;;12.73;;
60014;SDS011;45867;52.480;6.056;2022-08-19T11:26:53;24.27;;;15.10;;
60014;SDS011;45867;52.480;6.056;2022-08-19T11:29:23;28.13;;;15.75;;
60014;SDS011;45867;52.480;6.056;2022-08-19T11:31:52;29.02;;;15.73;;
60014;SDS011;45867;52.480;6.056;2022-08-19T11:34:19;28.33;;;16.13;;
60014;SDS011;45867;52.480;6.056;2022-08-19T11:36:45;28.92;;;15.80;;
60014;SDS011;45867;52.480;6.056;2022-08-19T11:39:13;25.75;;;15.10;;
60014;SDS011;45867;52.480;6.056;2022-08-19T11:41:38;25.88;;;14.93;;
60014;SDS011;45867;52.480;6.056;2022-08-19T11:44:03;24.67;;;14.70;;
60014;SDS011;45867;52.480;6.056;2022-08-19T11:46:29;23.70;;;13.80;;
60014;SDS011;45867;52.480;6.056;2022-08-19T11:48:55;24.02;;;13.23;;
60014;SDS011;45867;52.480;6.056;2022-08-19T11:51:22;25.70;;;12.70;;
60014;SDS011;45867;52.480;6.056;2022-08-19T11:53:48;21.63;;;10.32;;
60014;SDS011;45867;52.480;6.056;2022-08-19T11:56:14;23.17;;;13.93;;
60014;SDS011;45867;52.480;6.056;2022-08-19T11:58:39;20.17;;;12.02;;
60014;SDS011;45867;52.480;6.056;2022-08-19T12:01:08;25.33;;;13.98;;
60014;SDS011;45867;52.480;6.056;2022-08-19T12:03:34;25.25;;;14.55;;
60014;SDS011;45867;52.480;6.056;2022-08-19T12:06:03;29.42;;;15.70;;
60014;SDS011;45867;52.480;6.056;2022-08-19T12:08:28;23.38;;;13.63;;
60014;SDS011;45867;52.480;6.056;2022-08-19T12:10:53;23.30;;;13.73;;
60014;SDS011;45867;52.480;6.056;2022-08-19T12:13:19;28.00;;;14.52;;
60014;SDS011;45867;52.480;6.056;2022-08-19T12:15:45;23.27;;;15.33;;
60014;SDS011;45867;52.480;6.056;2022-08-19T12:18:10;26.20;;;14.38;;
60014;SDS011;45867;52.480;6.056;2022-08-19T12:20:37;26.50;;;14.48;;
60014;SDS011;45867;52.480;6.056;2022-08-19T12:23:03;25.42;;;13.45;;
60014;SDS011;45867;52.480;6.056;2022-08-19T12:25:29;20.27;;;12.38;;
60014;SDS011;45867;52.480;6.056;2022-08-19T12:27:54;19.35;;;13.40;;
60014;SDS011;45867;52.480;6.056;2022-08-19T12:30:20;18.95;;;11.93;;
60014;SDS011;45867;52.480;6.056;2022-08-19T12:32:45;25.15;;;14.30;;
60014;SDS011;45867;52.480;6.056;2022-08-19T12:35:10;20.33;;;12.95;;
60014;SDS011;45867;52.480;6.056;2022-08-19T12:37:36;21.55;;;11.20;;
60014;SDS011;45867;52.480;6.056;2022-08-19T12:40:02;20.70;;;12.82;;
60014;SDS011;45867;52.480;6.056;2022-08-19T12:42:28;15.00;;;9.05;;
60014;SDS011;45867;52.480;6.056;2022-08-19T12:44:54;17.27;;;8.90;;
60014;SDS011;45867;52.480;6.056;2022-08-19T12:47:19;17.60;;;10.25;;
60014;SDS011;45867;52.480;6.056;2022-08-19T12:49:46;27.48;;;11.88;;
60014;SDS011;45867;52.480;6.056;2022-08-19T12:52:11;20.25;;;13.98;;
60014;SDS011;45867;52.480;6.056;2022-08-19T12:54:40;24.75;;;14.32;;
60014;SDS011;45867;52.480;6.056;2022-08-19T12:57:06;19.90;;;12.43;;
60014;SDS011;45867;52.480;6.056;2022-08-19T12:59:33;18.48;;;11.43;;
60014;SDS011;45867;52.480;6.056;2022-08-19T13:01:58;22.13;;;12.07;;
60014;SDS011;45867;52.480;6.056;2022-08-19T13:04:24;19.07;;;11.50;;
60014;SDS011;45867;52.480;6.056;2022-08-19T13:06:49;15.30;;;10.30;;
60014;SDS011;45867;52.480;6.056;2022-08-19T13:09:14;22.67;;;12.90;;
60014;SDS011;45867;52.480;6.056;2022-08-19T13:11:40;23.43;;;13.00;;
60014;SDS011;45867;52.480;6.056;2022-08-19T13:14:05;19.55;;;11.95;;
60014;SDS011;45867;52.480;6.056;2022-08-19T13:16:30;21.10;;;10.45;;
60014;SDS011;45867;52.480;6.056;2022-08-19T13:18:56;23.98;;;14.07;;
60014;SDS011;45867;52.480;6.056;2022-08-19T13:21:23;20.58;;;12.10;;
60014;SDS011;45867;52.480;6.056;2022-08-19T13:23:49;16.67;;;11.30;;
60014;SDS011;45867;52.480;6.056;2022-08-19T13:26:15;19.15;;;11.35;;
60014;SDS011;45867;52.480;6.056;2022-08-19T13:28:41;17.27;;;10.25;;
60014;SDS011;45867;52.480;6.056;2022-08-19T13:31:32;20.02;;;10.15;;
60014;SDS011;45867;52.480;6.056;2022-08-19T13:34:17;18.35;;;10.88;;
60014;SDS011;45867;52.480;6.056;2022-08-19T13:36:44;18.90;;;10.73;;
60014;SDS011;45867;52.480;6.056;2022-08-19T13:39:09;20.55;;;10.65;;
60014;SDS011;45867;52.480;6.056;2022-08-19T13:41:35;21.30;;;11.45;;
60014;SDS011;45867;52.480;6.056;2022-08-19T13:44:01;23.20;;;11.90;;
60014;SDS011;45867;52.480;6.056;2022-08-19T13:46:26;25.42;;;12.93;;
60014;SDS011;45867;52.480;6.056;2022-08-19T13:48:52;24.42;;;12.68;;
60014;SDS011;45867;52.480;6.056;2022-08-19T13:51:17;22.75;;;12.75;;
60014;SDS011;45867;52.480;6.056;2022-08-19T13:53:43;20.05;;;12.25;;
60014;SDS011;45867;52.480;6.056;2022-08-19T13:56:11;29.80;;;14.85;;
60014;SDS011;45867;52.480;6.056;2022-08-19T13:58:37;24.23;;;14.05;;
60014;SDS011;45867;52.480;6.056;2022-08-19T14:01:03;27.60;;;14.73;;
60014;SDS011;45867;52.480;6.056;2022-08-19T14:03:28;28.50;;;16.52;;
60014;SDS011;45867;52.480;6.056;2022-08-19T14:05:53;29.20;;;16.90;;
60014;SDS011;45867;52.480;6.056;2022-08-19T14:08:19;27.30;;;15.80;;
60014;SDS011;45867;52.480;6.056;2022-08-19T14:10:44;28.98;;;15.70;;
60014;SDS011;45867;52.480;6.056;2022-08-19T14:13:12;26.73;;;16.25;;
60014;SDS011;45867;52.480;6.056;2022-08-19T14:15:38;30.00;;;17.33;;
60014;SDS011;45867;52.480;6.056;2022-08-19T14:18:03;28.15;;;15.85;;
60014;SDS011;45867;52.480;6.056;2022-08-19T14:20:28;26.20;;;15.60;;
60014;SDS011;45867;52.480;6.056;2022-08-19T14:22:54;24.88;;;16.05;;
60014;SDS011;45867;52.480;6.056;2022-08-19T14:25:21;34.08;;;15.50;;
60014;SDS011;45867;52.480;6.056;2022-08-19T14:27:47;36.15;;;15.65;;
60014;SDS011;45867;52.480;6.056;2022-08-19T14:30:13;24.15;;;15.55;;
60014;SDS011;45867;52.480;6.056;2022-08-19T14:32:39;29.30;;;16.63;;
60014;SDS011;45867;52.480;6.056;2022-08-19T14:35:05;29.55;;;14.95;;
60014;SDS011;45867;52.480;6.056;2022-08-19T14:37:32;23.50;;;12.77;;